N48MQ KOLV-KJWN
Flight info
| Callsign | N48MQ |
|---|---|
| Flight time | 0h 59m |
| Altitude | 7500 |
| Route | KOLV OPADE TWITY KJWN |
| Aircraft | M20P/L-VGDW/C |
Departure
| Time | 2026-04-22 23:36 |
|---|---|
| Airport | Olive Branch Airport (KOLV) |
Arrival
| Time | 2026-04-23 00:35 |
|---|---|
| Airport | John C Tune Airport (KJWN) |
| Time | Latitude | Longitude | Altitude | Speed | Heading |
|---|---|---|---|---|---|
| 2026-04-22 23:25 | 34.98272 | -89.78942 | 400 ft | 0 kts | 272° |
| 2026-04-22 23:30 | 34.98272 | -89.78943 | 400 ft | 0 kts | 272° |
| 2026-04-22 23:31 | 34.98272 | -89.78942 | 400 ft | 0 kts | 272° |
| 2026-04-22 23:33 | 34.98272 | -89.78943 | 400 ft | 0 kts | 272° |
| 2026-04-22 23:33 | 34.98293 | -89.78928 | 400 ft | 11 kts | 90° |
| 2026-04-22 23:33 | 34.98306 | -89.78826 | 399 ft | 11 kts | 17° |
| 2026-04-22 23:34 | 34.98439 | -89.78825 | 398 ft | 23 kts | 359° |
| 2026-04-22 23:34 | 34.98613 | -89.78827 | 397 ft | 23 kts | 359° |
| 2026-04-22 23:34 | 34.98694 | -89.78792 | 396 ft | 8 kts | 96° |
| 2026-04-22 23:34 | 34.98693 | -89.78784 | 396 ft | 0 kts | 94° |
| 2026-04-22 23:35 | 34.98682 | -89.78706 | 395 ft | 14 kts | 130° |
| 2026-04-22 23:35 | 34.98483 | -89.78689 | 399 ft | 60 kts | 180° |
| 2026-04-22 23:35 | 34.97870 | -89.78680 | 452 ft | 99 kts | 181° |
| 2026-04-22 23:36 | 34.97235 | -89.78707 | 890 ft | 84 kts | 186° |
| 2026-04-22 23:36 | 34.96657 | -89.78532 | 1186 ft | 95 kts | 144° |
| 2026-04-22 23:36 | 34.96366 | -89.77798 | 1629 ft | 98 kts | 97° |
| 2026-04-22 23:36 | 34.96615 | -89.76926 | 1932 ft | 113 kts | 59° |
| 2026-04-22 23:37 | 34.97138 | -89.76078 | 2103 ft | 132 kts | 57° |
| 2026-04-22 23:37 | 34.97666 | -89.75127 | 2421 ft | 133 kts | 60° |
| 2026-04-22 23:37 | 34.98281 | -89.74236 | 2742 ft | 136 kts | 48° |
| 2026-04-22 23:37 | 34.98996 | -89.73424 | 3052 ft | 138 kts | 42° |
| 2026-04-22 23:38 | 34.99741 | -89.72630 | 3362 ft | 139 kts | 41° |
| 2026-04-22 23:38 | 35.00482 | -89.71837 | 3672 ft | 140 kts | 41° |
| 2026-04-22 23:38 | 35.01179 | -89.70976 | 3981 ft | 139 kts | 58° |
| 2026-04-22 23:38 | 35.01660 | -89.69928 | 4296 ft | 139 kts | 65° |
| 2026-04-22 23:39 | 35.02128 | -89.68849 | 4611 ft | 142 kts | 64° |
| 2026-04-22 23:39 | 35.02603 | -89.67760 | 4924 ft | 144 kts | 64° |
| 2026-04-22 23:39 | 35.03087 | -89.66643 | 5237 ft | 146 kts | 64° |
| 2026-04-22 23:39 | 35.03567 | -89.65530 | 5547 ft | 147 kts | 63° |
| 2026-04-22 23:40 | 35.04046 | -89.64423 | 5852 ft | 148 kts | 63° |
| 2026-04-22 23:40 | 35.04533 | -89.63294 | 6161 ft | 149 kts | 63° |
| 2026-04-22 23:40 | 35.05019 | -89.62167 | 6469 ft | 149 kts | 62° |
| 2026-04-22 23:40 | 35.05515 | -89.61019 | 6783 ft | 149 kts | 62° |
| 2026-04-22 23:41 | 35.06008 | -89.59877 | 7094 ft | 149 kts | 61° |
| 2026-04-22 23:41 | 35.06502 | -89.58730 | 7401 ft | 150 kts | 61° |
| 2026-04-22 23:41 | 35.07019 | -89.57533 | 7501 ft | 166 kts | 61° |
| 2026-04-22 23:41 | 35.07586 | -89.56212 | 7505 ft | 182 kts | 61° |
| 2026-04-22 23:42 | 35.08191 | -89.54803 | 7501 ft | 193 kts | 61° |
| 2026-04-22 23:42 | 35.08837 | -89.53300 | 7498 ft | 198 kts | 61° |
| 2026-04-22 23:42 | 35.09494 | -89.51769 | 7493 ft | 196 kts | 61° |
| 2026-04-22 23:42 | 35.10131 | -89.50288 | 7492 ft | 193 kts | 61° |
| 2026-04-22 23:43 | 35.10763 | -89.48818 | 7491 ft | 191 kts | 61° |
| 2026-04-22 23:43 | 35.11391 | -89.47356 | 7491 ft | 190 kts | 61° |
| 2026-04-22 23:43 | 35.12024 | -89.45884 | 7492 ft | 189 kts | 61° |
| 2026-04-22 23:43 | 35.12650 | -89.44425 | 7492 ft | 189 kts | 61° |
| 2026-04-22 23:44 | 35.13273 | -89.42973 | 7492 ft | 189 kts | 61° |
| 2026-04-22 23:44 | 35.13888 | -89.41538 | 7492 ft | 189 kts | 61° |
| 2026-04-22 23:44 | 35.14504 | -89.40103 | 7493 ft | 189 kts | 61° |
| 2026-04-22 23:44 | 35.15114 | -89.38680 | 7493 ft | 189 kts | 61° |
| 2026-04-22 23:45 | 35.15727 | -89.37247 | 7493 ft | 189 kts | 61° |
| 2026-04-22 23:45 | 35.16340 | -89.35817 | 7493 ft | 189 kts | 61° |
| 2026-04-22 23:45 | 35.16952 | -89.34386 | 7489 ft | 189 kts | 62° |
| 2026-04-22 23:45 | 35.17559 | -89.32967 | 7488 ft | 188 kts | 62° |
| 2026-04-22 23:46 | 35.18171 | -89.31536 | 7488 ft | 188 kts | 62° |
| 2026-04-22 23:46 | 35.18771 | -89.30132 | 7488 ft | 188 kts | 62° |
| 2026-04-22 23:46 | 35.19379 | -89.28709 | 7488 ft | 188 kts | 62° |
| 2026-04-22 23:46 | 35.19984 | -89.27292 | 7488 ft | 187 kts | 62° |
| 2026-04-22 23:47 | 35.20587 | -89.25880 | 7488 ft | 187 kts | 62° |
| 2026-04-22 23:47 | 35.21190 | -89.24463 | 7488 ft | 187 kts | 62° |
| 2026-04-22 23:47 | 35.21787 | -89.23061 | 7489 ft | 187 kts | 62° |
| 2026-04-22 23:47 | 35.22394 | -89.21635 | 7489 ft | 187 kts | 62° |
| 2026-04-22 23:48 | 35.22995 | -89.20225 | 7489 ft | 187 kts | 62° |
| 2026-04-22 23:48 | 35.23595 | -89.18816 | 7490 ft | 187 kts | 62° |
| 2026-04-22 23:48 | 35.24200 | -89.17396 | 7491 ft | 187 kts | 61° |
| 2026-04-22 23:48 | 35.24803 | -89.15978 | 7491 ft | 187 kts | 61° |
| 2026-04-22 23:49 | 35.25402 | -89.14572 | 7492 ft | 188 kts | 61° |
| 2026-04-22 23:49 | 35.26004 | -89.13156 | 7493 ft | 188 kts | 61° |
| 2026-04-22 23:49 | 35.26606 | -89.11740 | 7494 ft | 188 kts | 61° |
| 2026-04-22 23:49 | 35.27210 | -89.10318 | 7494 ft | 188 kts | 61° |
| 2026-04-22 23:50 | 35.27815 | -89.08894 | 7491 ft | 188 kts | 61° |
| 2026-04-22 23:50 | 35.28417 | -89.07475 | 7492 ft | 188 kts | 61° |
| 2026-04-22 23:50 | 35.29020 | -89.06053 | 7493 ft | 188 kts | 60° |
| 2026-04-22 23:50 | 35.29620 | -89.04639 | 7495 ft | 188 kts | 60° |
| 2026-04-22 23:51 | 35.30227 | -89.03208 | 7498 ft | 188 kts | 60° |
| 2026-04-22 23:51 | 35.30825 | -89.01797 | 7499 ft | 188 kts | 60° |
| 2026-04-22 23:51 | 35.31430 | -89.00369 | 7501 ft | 188 kts | 60° |
| 2026-04-22 23:51 | 35.32030 | -88.98953 | 7502 ft | 188 kts | 59° |
| 2026-04-22 23:52 | 35.32638 | -88.97516 | 7504 ft | 188 kts | 59° |
| 2026-04-22 23:52 | 35.33234 | -88.96106 | 7505 ft | 188 kts | 59° |
| 2026-04-22 23:52 | 35.33838 | -88.94678 | 7506 ft | 188 kts | 59° |
| 2026-04-22 23:52 | 35.34443 | -88.93248 | 7507 ft | 188 kts | 59° |
| 2026-04-22 23:53 | 35.35039 | -88.91836 | 7508 ft | 188 kts | 59° |
| 2026-04-22 23:53 | 35.35640 | -88.90414 | 7508 ft | 188 kts | 59° |
| 2026-04-22 23:53 | 35.36244 | -88.88983 | 7509 ft | 188 kts | 59° |
| 2026-04-22 23:53 | 35.36842 | -88.87567 | 7509 ft | 188 kts | 59° |
| 2026-04-22 23:54 | 35.37443 | -88.86143 | 7509 ft | 188 kts | 59° |
| 2026-04-22 23:54 | 35.38042 | -88.84721 | 7509 ft | 188 kts | 59° |
| 2026-04-22 23:54 | 35.38649 | -88.83282 | 7510 ft | 189 kts | 59° |
| 2026-04-22 23:54 | 35.39249 | -88.81857 | 7510 ft | 189 kts | 59° |
| 2026-04-22 23:55 | 35.39847 | -88.80437 | 7510 ft | 189 kts | 59° |
| 2026-04-22 23:55 | 35.40456 | -88.78991 | 7510 ft | 189 kts | 59° |
| 2026-04-22 23:55 | 35.41058 | -88.77558 | 7510 ft | 189 kts | 59° |
| 2026-04-22 23:55 | 35.41653 | -88.76142 | 7510 ft | 188 kts | 58° |
| 2026-04-22 23:56 | 35.42249 | -88.74725 | 7510 ft | 188 kts | 58° |
| 2026-04-22 23:56 | 35.42845 | -88.73305 | 7511 ft | 187 kts | 57° |
| 2026-04-22 23:56 | 35.43442 | -88.71883 | 7510 ft | 186 kts | 57° |
| 2026-04-22 23:56 | 35.44032 | -88.70479 | 7511 ft | 185 kts | 57° |
| 2026-04-22 23:57 | 35.44625 | -88.69063 | 7510 ft | 184 kts | 56° |
| 2026-04-22 23:57 | 35.45208 | -88.67676 | 7511 ft | 183 kts | 56° |
| 2026-04-22 23:57 | 35.45790 | -88.66286 | 7510 ft | 182 kts | 56° |
| 2026-04-22 23:57 | 35.46366 | -88.64913 | 7511 ft | 182 kts | 56° |
| 2026-04-22 23:58 | 35.46942 | -88.63538 | 7509 ft | 180 kts | 56° |
| 2026-04-22 23:58 | 35.47508 | -88.62185 | 7510 ft | 179 kts | 55° |
| 2026-04-22 23:58 | 35.48079 | -88.60822 | 7510 ft | 178 kts | 55° |
| 2026-04-22 23:58 | 35.48645 | -88.59469 | 7510 ft | 176 kts | 54° |
| 2026-04-22 23:59 | 35.49198 | -88.58145 | 7510 ft | 175 kts | 55° |
| 2026-04-22 23:59 | 35.49755 | -88.56813 | 7508 ft | 174 kts | 54° |
| 2026-04-22 23:59 | 35.50306 | -88.55497 | 7511 ft | 173 kts | 54° |
| 2026-04-22 23:59 | 35.50856 | -88.54182 | 7510 ft | 173 kts | 54° |
| 2026-04-23 00:00 | 35.51957 | -88.51547 | 7513 ft | 173 kts | 54° |
| 2026-04-23 00:00 | 35.52502 | -88.50243 | 7511 ft | 174 kts | 55° |
| 2026-04-23 00:00 | 35.53061 | -88.48904 | 7511 ft | 174 kts | 55° |
| 2026-04-23 00:01 | 35.53611 | -88.47588 | 7510 ft | 176 kts | 55° |
| 2026-04-23 00:01 | 35.54170 | -88.46247 | 7511 ft | 177 kts | 56° |
| 2026-04-23 00:01 | 35.54736 | -88.44891 | 7511 ft | 178 kts | 57° |
| 2026-04-23 00:01 | 35.55308 | -88.43519 | 7512 ft | 180 kts | 57° |
| 2026-04-23 00:02 | 35.55878 | -88.42146 | 7512 ft | 181 kts | 57° |
| 2026-04-23 00:02 | 35.56447 | -88.40781 | 7512 ft | 182 kts | 58° |
| 2026-04-23 00:02 | 35.57024 | -88.39392 | 7512 ft | 183 kts | 58° |
| 2026-04-23 00:02 | 35.57603 | -88.37999 | 7512 ft | 184 kts | 58° |
| 2026-04-23 00:03 | 35.58189 | -88.36590 | 7512 ft | 185 kts | 59° |
| 2026-04-23 00:03 | 35.58776 | -88.35176 | 7512 ft | 185 kts | 59° |
| 2026-04-23 00:03 | 35.59365 | -88.33759 | 7507 ft | 186 kts | 60° |
| 2026-04-23 00:03 | 35.59953 | -88.32341 | 7507 ft | 186 kts | 60° |
| 2026-04-23 00:04 | 35.60538 | -88.30930 | 7507 ft | 186 kts | 60° |
| 2026-04-23 00:04 | 35.61123 | -88.29518 | 7507 ft | 187 kts | 60° |
| 2026-04-23 00:04 | 35.61718 | -88.28083 | 7507 ft | 187 kts | 60° |
| 2026-04-23 00:04 | 35.62303 | -88.26672 | 7507 ft | 187 kts | 60° |
| 2026-04-23 00:05 | 35.62894 | -88.25244 | 7508 ft | 187 kts | 61° |
| 2026-04-23 00:05 | 35.63486 | -88.23814 | 7508 ft | 187 kts | 61° |
| 2026-04-23 00:05 | 35.64075 | -88.22391 | 7508 ft | 187 kts | 61° |
| 2026-04-23 00:05 | 35.64665 | -88.20965 | 7508 ft | 187 kts | 61° |
| 2026-04-23 00:06 | 35.65260 | -88.19526 | 7508 ft | 187 kts | 61° |
| 2026-04-23 00:06 | 35.65850 | -88.18096 | 7508 ft | 187 kts | 61° |
| 2026-04-23 00:06 | 35.66444 | -88.16659 | 7508 ft | 188 kts | 61° |
| 2026-04-23 00:06 | 35.66907 | -88.15539 | 7508 ft | 188 kts | 61° |
| 2026-04-23 00:07 | 35.67464 | -88.14189 | 7508 ft | 188 kts | 61° |
| 2026-04-23 00:07 | 35.68054 | -88.12758 | 7508 ft | 188 kts | 61° |
| 2026-04-23 00:07 | 35.68643 | -88.11329 | 7508 ft | 188 kts | 61° |
| 2026-04-23 00:07 | 35.69235 | -88.09893 | 7508 ft | 188 kts | 61° |
| 2026-04-23 00:08 | 35.69828 | -88.08453 | 7508 ft | 188 kts | 61° |
| 2026-04-23 00:08 | 35.70417 | -88.07023 | 7509 ft | 188 kts | 61° |
| 2026-04-23 00:08 | 35.71008 | -88.05589 | 7509 ft | 188 kts | 61° |
| 2026-04-23 00:08 | 35.71598 | -88.04152 | 7509 ft | 188 kts | 61° |
| 2026-04-23 00:09 | 35.72187 | -88.02721 | 7509 ft | 188 kts | 61° |
| 2026-04-23 00:09 | 35.72781 | -88.01277 | 7509 ft | 188 kts | 61° |
| 2026-04-23 00:09 | 35.73367 | -87.99851 | 7509 ft | 188 kts | 61° |
| 2026-04-23 00:09 | 35.73961 | -87.98405 | 7509 ft | 188 kts | 61° |
| 2026-04-23 00:10 | 35.74543 | -87.96986 | 7509 ft | 188 kts | 61° |
| 2026-04-23 00:10 | 35.75138 | -87.95538 | 7509 ft | 188 kts | 61° |
| 2026-04-23 00:10 | 35.75728 | -87.94100 | 7505 ft | 188 kts | 61° |
| 2026-04-23 00:10 | 35.76315 | -87.92668 | 7501 ft | 188 kts | 61° |
| 2026-04-23 00:11 | 35.76907 | -87.91225 | 7500 ft | 188 kts | 61° |
| 2026-04-23 00:11 | 35.77496 | -87.89787 | 7500 ft | 188 kts | 61° |
| 2026-04-23 00:11 | 35.78086 | -87.88347 | 7500 ft | 188 kts | 61° |
| 2026-04-23 00:11 | 35.78678 | -87.86901 | 7501 ft | 188 kts | 61° |
| 2026-04-23 00:12 | 35.79269 | -87.85455 | 7501 ft | 188 kts | 61° |
| 2026-04-23 00:12 | 35.79859 | -87.84013 | 7501 ft | 188 kts | 61° |
| 2026-04-23 00:12 | 35.80443 | -87.82587 | 7501 ft | 188 kts | 61° |
| 2026-04-23 00:12 | 35.81036 | -87.81133 | 7500 ft | 188 kts | 61° |
| 2026-04-23 00:13 | 35.81618 | -87.79709 | 7500 ft | 188 kts | 61° |
| 2026-04-23 00:13 | 35.82208 | -87.78265 | 7499 ft | 188 kts | 61° |
| 2026-04-23 00:13 | 35.82799 | -87.76816 | 7499 ft | 188 kts | 61° |
| 2026-04-23 00:13 | 35.83388 | -87.75372 | 7498 ft | 189 kts | 62° |
| 2026-04-23 00:14 | 35.83976 | -87.73932 | 7498 ft | 189 kts | 62° |
| 2026-04-23 00:14 | 35.84571 | -87.72471 | 7497 ft | 189 kts | 62° |
| 2026-04-23 00:14 | 35.85155 | -87.71038 | 7497 ft | 189 kts | 62° |
| 2026-04-23 00:14 | 35.85750 | -87.69578 | 7496 ft | 189 kts | 62° |
| 2026-04-23 00:15 | 35.86337 | -87.68136 | 7496 ft | 189 kts | 62° |
| 2026-04-23 00:15 | 35.86923 | -87.66694 | 7496 ft | 189 kts | 62° |
| 2026-04-23 00:15 | 35.87516 | -87.65237 | 7495 ft | 189 kts | 62° |
| 2026-04-23 00:15 | 35.88102 | -87.63794 | 7495 ft | 189 kts | 62° |
| 2026-04-23 00:16 | 35.88692 | -87.62342 | 7494 ft | 189 kts | 62° |
| 2026-04-23 00:16 | 35.89283 | -87.60888 | 7494 ft | 189 kts | 62° |
| 2026-04-23 00:16 | 35.89871 | -87.59438 | 7493 ft | 189 kts | 62° |
| 2026-04-23 00:16 | 35.90462 | -87.57983 | 7493 ft | 189 kts | 62° |
| 2026-04-23 00:17 | 35.91052 | -87.56527 | 7494 ft | 189 kts | 62° |
| 2026-04-23 00:17 | 35.91642 | -87.55072 | 7494 ft | 189 kts | 62° |
| 2026-04-23 00:17 | 35.92227 | -87.53629 | 7494 ft | 189 kts | 62° |
| 2026-04-23 00:17 | 35.92818 | -87.52171 | 7494 ft | 189 kts | 62° |
| 2026-04-23 00:18 | 35.93406 | -87.50718 | 7494 ft | 189 kts | 62° |
| 2026-04-23 00:18 | 35.93998 | -87.49255 | 7494 ft | 190 kts | 62° |
| 2026-04-23 00:18 | 35.94588 | -87.47796 | 7494 ft | 190 kts | 62° |
| 2026-04-23 00:18 | 35.95170 | -87.46357 | 7494 ft | 190 kts | 62° |
| 2026-04-23 00:19 | 35.95760 | -87.44895 | 7494 ft | 190 kts | 62° |
| 2026-04-23 00:19 | 35.96354 | -87.43427 | 7494 ft | 190 kts | 62° |
| 2026-04-23 00:19 | 35.96946 | -87.41963 | 7494 ft | 190 kts | 62° |
| 2026-04-23 00:19 | 35.97538 | -87.40502 | 7494 ft | 190 kts | 62° |
| 2026-04-23 00:20 | 35.98130 | -87.39036 | 7495 ft | 190 kts | 62° |
| 2026-04-23 00:20 | 35.98717 | -87.37583 | 7495 ft | 190 kts | 62° |
| 2026-04-23 00:20 | 35.99304 | -87.36130 | 7461 ft | 191 kts | 61° |
| 2026-04-23 00:20 | 35.99883 | -87.34751 | 7283 ft | 169 kts | 62° |
| 2026-04-23 00:21 | 36.00399 | -87.33528 | 7119 ft | 156 kts | 62° |
| 2026-04-23 00:21 | 36.00893 | -87.32362 | 6959 ft | 149 kts | 62° |
| 2026-04-23 00:21 | 36.01364 | -87.31248 | 6804 ft | 145 kts | 62° |
| 2026-04-23 00:21 | 36.01825 | -87.30160 | 6652 ft | 142 kts | 62° |
| 2026-04-23 00:22 | 36.02284 | -87.29077 | 6499 ft | 141 kts | 62° |
| 2026-04-23 00:22 | 36.02730 | -87.28024 | 6350 ft | 139 kts | 62° |
| 2026-04-23 00:22 | 36.03175 | -87.26971 | 6200 ft | 138 kts | 62° |
| 2026-04-23 00:22 | 36.03616 | -87.25927 | 6050 ft | 137 kts | 63° |
| 2026-04-23 00:23 | 36.04057 | -87.24885 | 5901 ft | 137 kts | 63° |
| 2026-04-23 00:23 | 36.04498 | -87.23842 | 5751 ft | 136 kts | 63° |
| 2026-04-23 00:23 | 36.04946 | -87.22807 | 5601 ft | 135 kts | 60° |
| 2026-04-23 00:23 | 36.05388 | -87.21810 | 5525 ft | 130 kts | 60° |
| 2026-04-23 00:24 | 36.05837 | -87.20849 | 5440 ft | 129 kts | 56° |
| 2026-04-23 00:24 | 36.06426 | -87.20003 | 5334 ft | 131 kts | 42° |
| 2026-04-23 00:24 | 36.06965 | -87.19085 | 5193 ft | 135 kts | 54° |
| 2026-04-23 00:24 | 36.07557 | -87.18189 | 5059 ft | 134 kts | 44° |
| 2026-04-23 00:25 | 36.08212 | -87.17349 | 4927 ft | 134 kts | 44° |
| 2026-04-23 00:25 | 36.08860 | -87.16502 | 4798 ft | 135 kts | 44° |
| 2026-04-23 00:25 | 36.09504 | -87.15659 | 4671 ft | 134 kts | 44° |
| 2026-04-23 00:25 | 36.10146 | -87.14819 | 4544 ft | 134 kts | 44° |
| 2026-04-23 00:26 | 36.10778 | -87.13988 | 4416 ft | 133 kts | 44° |
| 2026-04-23 00:26 | 36.11410 | -87.13155 | 4288 ft | 132 kts | 44° |
| 2026-04-23 00:26 | 36.12034 | -87.12331 | 4160 ft | 132 kts | 44° |
| 2026-04-23 00:26 | 36.12657 | -87.11505 | 4032 ft | 131 kts | 44° |
| 2026-04-23 00:27 | 36.13276 | -87.10683 | 3905 ft | 130 kts | 44° |
| 2026-04-23 00:27 | 36.13899 | -87.09855 | 3775 ft | 129 kts | 44° |
| 2026-04-23 00:27 | 36.14508 | -87.09042 | 3648 ft | 129 kts | 45° |
| 2026-04-23 00:27 | 36.15052 | -87.08168 | 3521 ft | 129 kts | 53° |
| 2026-04-23 00:28 | 36.15540 | -87.07240 | 3394 ft | 128 kts | 55° |
| 2026-04-23 00:28 | 36.16030 | -87.06309 | 3265 ft | 128 kts | 55° |
| 2026-04-23 00:28 | 36.16510 | -87.05396 | 3139 ft | 127 kts | 55° |
| 2026-04-23 00:28 | 36.16993 | -87.04479 | 3011 ft | 126 kts | 55° |
| 2026-04-23 00:29 | 36.17488 | -87.03580 | 2883 ft | 126 kts | 52° |
| 2026-04-23 00:29 | 36.17990 | -87.02704 | 2756 ft | 125 kts | 53° |
| 2026-04-23 00:29 | 36.18498 | -87.01817 | 2627 ft | 124 kts | 53° |
| 2026-04-23 00:29 | 36.18998 | -87.00946 | 2514 ft | 122 kts | 53° |
| 2026-04-23 00:30 | 36.19502 | -87.00072 | 2509 ft | 130 kts | 53° |
| 2026-04-23 00:30 | 36.20049 | -86.99125 | 2501 ft | 135 kts | 53° |
| 2026-04-23 00:30 | 36.20593 | -86.98186 | 2498 ft | 134 kts | 53° |
| 2026-04-23 00:30 | 36.21134 | -86.97250 | 2498 ft | 134 kts | 53° |
| 2026-04-23 00:31 | 36.21676 | -86.96314 | 2498 ft | 133 kts | 53° |
| 2026-04-23 00:31 | 36.22221 | -86.95374 | 2501 ft | 136 kts | 53° |
| 2026-04-23 00:31 | 36.22780 | -86.94410 | 2500 ft | 138 kts | 53° |
| 2026-04-23 00:31 | 36.23337 | -86.93450 | 2437 ft | 134 kts | 53° |
| 2026-04-23 00:32 | 36.23868 | -86.92528 | 2277 ft | 129 kts | 57° |
| 2026-04-23 00:32 | 36.24097 | -86.91489 | 2149 ft | 122 kts | 90° |
| 2026-04-23 00:32 | 36.24099 | -86.90473 | 1999 ft | 115 kts | 90° |
| 2026-04-23 00:32 | 36.24129 | -86.89520 | 1799 ft | 109 kts | 88° |
| 2026-04-23 00:33 | 36.24168 | -86.88586 | 1554 ft | 107 kts | 91° |
| 2026-04-23 00:33 | 36.23941 | -86.87757 | 1421 ft | 100 kts | 134° |
| 2026-04-23 00:33 | 36.23372 | -86.87338 | 1316 ft | 96 kts | 167° |
| 2026-04-23 00:33 | 36.22710 | -86.87193 | 1202 ft | 97 kts | 187° |
| 2026-04-23 00:34 | 36.22055 | -86.87425 | 1083 ft | 98 kts | 202° |
| 2026-04-23 00:34 | 36.21387 | -86.87654 | 955 ft | 101 kts | 195° |
| 2026-04-23 00:34 | 36.20700 | -86.87865 | 834 ft | 103 kts | 198° |
| 2026-04-23 00:34 | 36.20005 | -86.88100 | 693 ft | 104 kts | 196° |
| 2026-04-23 00:35 | 36.19305 | -86.88319 | 604 ft | 101 kts | 196° |
| 2026-04-23 00:35 | 36.18662 | -86.88518 | 497 ft | 78 kts | 199° |
| 2026-04-23 00:35 | 36.18231 | -86.88673 | 457 ft | 52 kts | 196° |
| 2026-04-23 00:35 | 36.17922 | -86.88772 | 440 ft | 37 kts | 196° |
| 2026-04-23 00:36 | 36.17742 | -86.88836 | 435 ft | 23 kts | 195° |
| 2026-04-23 00:36 | 36.17580 | -86.88887 | 433 ft | 23 kts | 194° |
| 2026-04-23 00:36 | 36.17491 | -86.88818 | 439 ft | 13 kts | 107° |
| 2026-04-23 00:36 | 36.17474 | -86.88748 | 443 ft | 10 kts | 107° |
| 2026-04-23 00:37 | 36.17441 | -86.88656 | 447 ft | 11 kts | 177° |
| 2026-04-23 00:37 | 36.17369 | -86.88622 | 447 ft | 14 kts | 105° |
| 2026-04-23 00:37 | 36.17343 | -86.88500 | 451 ft | 13 kts | 97° |
| 2026-04-23 00:37 | 36.17391 | -86.88440 | 455 ft | 10 kts | 15° |
| 2026-04-23 00:38 | 36.17458 | -86.88421 | 457 ft | 9 kts | 350° |
| 2026-04-23 00:38 | 36.17473 | -86.88452 | 456 ft | 0 kts | 282° |